sensor_id;sensor_type;location;lat;lon;timestamp;pressure;altitude;pressure_sealevel;temperature;humidity
36258;BME280;22294;52.044;4.582;2023-02-28T00:00:49;79179.22;;;-144.37;94.29
36258;BME280;22294;52.044;4.582;2023-02-28T00:03:15;79175.13;;;-144.37;94.05
36258;BME280;22294;52.044;4.582;2023-02-28T00:05:40;79168.97;;;-144.37;93.97
36258;BME280;22294;52.044;4.582;2023-02-28T00:08:07;79166.94;;;-144.37;93.99
36258;BME280;22294;52.044;4.582;2023-02-28T00:10:32;79168.97;;;-144.37;93.96
36258;BME280;22294;52.044;4.582;2023-02-28T00:13:04;79164.88;;;-144.37;94.69
36258;BME280;22294;52.044;4.582;2023-02-28T00:15:30;79168.97;;;-144.37;94.32
36258;BME280;22294;52.044;4.582;2023-02-28T00:17:56;79160.78;;;-144.37;94.53
36258;BME280;22294;52.044;4.582;2023-02-28T00:20:22;79156.69;;;-144.37;94.59
36258;BME280;22294;52.044;4.582;2023-02-28T00:22:51;79162.84;;;-144.37;94.78
36258;BME280;22294;52.044;4.582;2023-02-28T00:25:20;79150.56;;;-144.37;94.81
36258;BME280;22294;52.044;4.582;2023-02-28T00:27:46;79158.75;;;-144.37;95.23
36258;BME280;22294;52.044;4.582;2023-02-28T00:30:15;79158.75;;;-144.37;95.08
36258;BME280;22294;52.044;4.582;2023-02-28T00:32:41;79158.75;;;-144.37;95.24
36258;BME280;22294;52.044;4.582;2023-02-28T00:35:08;79152.59;;;-144.37;95.71
36258;BME280;22294;52.044;4.582;2023-02-28T00:37:34;79146.47;;;-144.37;95.93
36258;BME280;22294;52.044;4.582;2023-02-28T00:39:59;79152.59;;;-144.37;95.97
36258;BME280;22294;52.044;4.582;2023-02-28T00:42:25;79150.56;;;-144.37;96.19
36258;BME280;22294;52.044;4.582;2023-02-28T00:44:50;79138.28;;;-144.37;96.05
36258;BME280;22294;52.044;4.582;2023-02-28T00:47:16;79138.28;;;-144.37;96.29
36258;BME280;22294;52.044;4.582;2023-02-28T00:49:41;79136.22;;;-144.37;96.73
36258;BME280;22294;52.044;4.582;2023-02-28T00:52:07;79132.13;;;-144.37;97.06
36258;BME280;22294;52.044;4.582;2023-02-28T00:54:33;79123.94;;;-144.37;96.82
36258;BME280;22294;52.044;4.582;2023-02-28T00:56:58;79119.84;;;-144.37;97.00
36258;BME280;22294;52.044;4.582;2023-02-28T00:59:24;79126.00;;;-144.37;97.19
36258;BME280;22294;52.044;4.582;2023-02-28T01:01:49;79126.00;;;-144.37;97.17
36258;BME280;22294;52.044;4.582;2023-02-28T01:04:15;79121.91;;;-144.37;97.24
36258;BME280;22294;52.044;4.582;2023-02-28T01:06:42;79115.75;;;-144.37;97.05
36258;BME280;22294;52.044;4.582;2023-02-28T01:09:08;79123.94;;;-144.37;97.19
36258;BME280;22294;52.044;4.582;2023-02-28T01:11:34;79115.75;;;-144.37;97.23
36258;BME280;22294;52.044;4.582;2023-02-28T01:14:01;79111.66;;;-144.37;97.23
36258;BME280;22294;52.044;4.582;2023-02-28T01:16:27;79117.81;;;-144.37;97.44
36258;BME280;22294;52.044;4.582;2023-02-28T01:18:52;79128.03;;;-144.37;98.37
36258;BME280;22294;52.044;4.582;2023-02-28T01:21:20;79132.13;;;-144.37;98.88
36258;BME280;22294;52.044;4.582;2023-02-28T01:23:46;79123.94;;;-144.37;98.93
36258;BME280;22294;52.044;4.582;2023-02-28T01:26:15;79128.03;;;-144.37;99.08
36258;BME280;22294;52.044;4.582;2023-02-28T01:28:41;79123.94;;;-144.37;98.82
36258;BME280;22294;52.044;4.582;2023-02-28T01:31:07;79105.53;;;-144.37;98.60
36258;BME280;22294;52.044;4.582;2023-02-28T01:33:33;79107.56;;;-144.37;98.47
36258;BME280;22294;52.044;4.582;2023-02-28T01:36:00;79109.63;;;-144.37;98.69
36258;BME280;22294;52.044;4.582;2023-02-28T01:38:26;79101.44;;;-144.37;98.83
36258;BME280;22294;52.044;4.582;2023-02-28T01:40:52;79093.25;;;-144.37;98.59
36258;BME280;22294;52.044;4.582;2023-02-28T01:43:29;79099.38;;;-144.37;98.82
36258;BME280;22294;52.044;4.582;2023-02-28T01:45:56;79099.38;;;-144.37;99.79
36258;BME280;22294;52.044;4.582;2023-02-28T01:48:26;79091.19;;;-144.37;100.00
36258;BME280;22294;52.044;4.582;2023-02-28T01:50:52;79103.47;;;-144.37;100.00
36258;BME280;22294;52.044;4.582;2023-02-28T01:53:24;79091.19;;;-144.37;100.00
36258;BME280;22294;52.044;4.582;2023-02-28T01:55:53;79093.25;;;-144.37;100.00
36258;BME280;22294;52.044;4.582;2023-02-28T01:58:21;79089.16;;;-144.37;100.00
36258;BME280;22294;52.044;4.582;2023-02-28T02:00:46;79080.97;;;-144.37;100.00
36258;BME280;22294;52.044;4.582;2023-02-28T02:03:13;79076.88;;;-144.37;100.00
36258;BME280;22294;52.044;4.582;2023-02-28T02:05:41;79074.81;;;-144.37;100.00
36258;BME280;22294;52.044;4.582;2023-02-28T02:08:10;79072.78;;;-144.37;100.00
36258;BME280;22294;52.044;4.582;2023-02-28T02:10:42;79072.78;;;-144.37;100.00
36258;BME280;22294;52.044;4.582;2023-02-28T02:19:14;79074.81;;;-144.37;100.00
36258;BME280;22294;52.044;4.582;2023-02-28T02:36:23;79070.72;;;-144.37;100.00
36258;BME280;22294;52.044;4.582;2023-02-28T02:38:40;79058.44;;;-144.37;100.00
36258;BME280;22294;52.044;4.582;2023-02-28T02:41:22;79060.50;;;-144.37;100.00
36258;BME280;22294;52.044;4.582;2023-02-28T02:43:57;79060.50;;;-144.37;100.00
36258;BME280;22294;52.044;4.582;2023-02-28T02:46:31;79064.59;;;-144.37;100.00
36258;BME280;22294;52.044;4.582;2023-02-28T02:48:59;79060.50;;;-144.37;100.00
36258;BME280;22294;52.044;4.582;2023-02-28T02:51:26;79064.59;;;-144.37;100.00
36258;BME280;22294;52.044;4.582;2023-02-28T02:56:42;79074.81;;;-144.37;100.00
36258;BME280;22294;52.044;4.582;2023-02-28T02:59:11;79078.91;;;-144.37;100.00
36258;BME280;22294;52.044;4.582;2023-02-28T03:01:39;79078.91;;;-144.37;100.00
36258;BME280;22294;52.044;4.582;2023-02-28T03:04:09;79083.00;;;-144.37;100.00
36258;BME280;22294;52.044;4.582;2023-02-28T03:06:37;79078.91;;;-144.37;100.00
36258;BME280;22294;52.044;4.582;2023-02-28T03:09:02;79080.97;;;-144.37;100.00
36258;BME280;22294;52.044;4.582;2023-02-28T03:11:30;79080.97;;;-144.37;100.00
36258;BME280;22294;52.044;4.582;2023-02-28T03:14:25;79087.09;;;-144.37;100.00
36258;BME280;22294;52.044;4.582;2023-02-28T03:20:13;79068.69;;;-144.37;100.00
36258;BME280;22294;52.044;4.582;2023-02-28T03:22:56;79076.88;;;-144.37;100.00
36258;BME280;22294;52.044;4.582;2023-02-28T03:25:37;79070.72;;;-144.37;100.00
36258;BME280;22294;52.044;4.582;2023-02-28T03:28:22;79074.81;;;-144.37;100.00
36258;BME280;22294;52.044;4.582;2023-02-28T03:30:53;79078.91;;;-144.37;100.00
36258;BME280;22294;52.044;4.582;2023-02-28T03:33:46;79078.91;;;-144.37;100.00
36258;BME280;22294;52.044;4.582;2023-02-28T03:36:23;79076.88;;;-144.37;100.00
36258;BME280;22294;52.044;4.582;2023-02-28T03:38:51;79074.81;;;-144.37;100.00
36258;BME280;22294;52.044;4.582;2023-02-28T03:41:22;79078.91;;;-144.37;100.00
36258;BME280;22294;52.044;4.582;2023-02-28T03:43:58;79083.00;;;-144.37;100.00
36258;BME280;22294;52.044;4.582;2023-02-28T03:46:27;79072.78;;;-144.37;100.00
36258;BME280;22294;52.044;4.582;2023-02-28T03:49:05;79070.72;;;-144.37;100.00
36258;BME280;22294;52.044;4.582;2023-02-28T03:51:33;79054.34;;;-144.37;100.00
36258;BME280;22294;52.044;4.582;2023-02-28T03:54:05;79048.22;;;-144.37;100.00
36258;BME280;22294;52.044;4.582;2023-02-28T03:56:43;79046.16;;;-144.37;100.00
36258;BME280;22294;52.044;4.582;2023-02-28T03:59:17;79042.06;;;-144.37;100.00
36258;BME280;22294;52.044;4.582;2023-02-28T04:01:47;79044.13;;;-144.37;100.00
36258;BME280;22294;52.044;4.582;2023-02-28T04:04:15;79040.03;;;-144.37;100.00
36258;BME280;22294;52.044;4.582;2023-02-28T04:06:41;79035.94;;;-144.37;100.00
36258;BME280;22294;52.044;4.582;2023-02-28T04:09:08;79035.94;;;-144.37;100.00
36258;BME280;22294;52.044;4.582;2023-02-28T04:11:36;79040.03;;;-144.37;100.00
36258;BME280;22294;52.044;4.582;2023-02-28T04:14:05;79019.56;;;-144.37;100.00
36258;BME280;22294;52.044;4.582;2023-02-28T04:16:32;79025.72;;;-144.37;100.00
36258;BME280;22294;52.044;4.582;2023-02-28T04:18:57;79044.13;;;-144.37;100.00
36258;BME280;22294;52.044;4.582;2023-02-28T04:21:36;79042.06;;;-144.37;100.00
36258;BME280;22294;52.044;4.582;2023-02-28T04:24:03;79037.97;;;-144.37;100.00
36258;BME280;22294;52.044;4.582;2023-02-28T04:26:33;79033.91;;;-144.37;100.00
36258;BME280;22294;52.044;4.582;2023-02-28T04:28:59;79040.03;;;-144.37;100.00
36258;BME280;22294;52.044;4.582;2023-02-28T04:31:24;79042.06;;;-144.37;100.00
36258;BME280;22294;52.044;4.582;2023-02-28T04:33:49;79044.13;;;-144.37;100.00
36258;BME280;22294;52.044;4.582;2023-02-28T04:36:15;79050.25;;;-144.37;100.00
36258;BME280;22294;52.044;4.582;2023-02-28T04:38:43;79044.13;;;-144.37;100.00
36258;BME280;22294;52.044;4.582;2023-02-28T04:41:09;79048.22;;;-144.37;100.00
36258;BME280;22294;52.044;4.582;2023-02-28T04:43:34;79058.44;;;-144.37;100.00
36258;BME280;22294;52.044;4.582;2023-02-28T04:46:02;79068.69;;;-144.37;100.00
36258;BME280;22294;52.044;4.582;2023-02-28T04:48:29;79072.78;;;-144.37;100.00
36258;BME280;22294;52.044;4.582;2023-02-28T04:51:00;79068.69;;;-144.37;100.00
36258;BME280;22294;52.044;4.582;2023-02-28T04:53:25;79085.06;;;-144.37;100.00
36258;BME280;22294;52.044;4.582;2023-02-28T04:55:52;79085.06;;;-144.37;100.00
36258;BME280;22294;52.044;4.582;2023-02-28T04:58:17;79091.19;;;-144.37;100.00
36258;BME280;22294;52.044;4.582;2023-02-28T05:00:42;79085.06;;;-144.37;100.00
36258;BME280;22294;52.044;4.582;2023-02-28T05:03:08;79072.78;;;-144.37;100.00
36258;BME280;22294;52.044;4.582;2023-02-28T05:05:33;79080.97;;;-144.37;100.00
36258;BME280;22294;52.044;4.582;2023-02-28T05:07:59;79062.53;;;-144.37;100.00
36258;BME280;22294;52.044;4.582;2023-02-28T05:10:26;79070.72;;;-144.37;100.00
36258;BME280;22294;52.044;4.582;2023-02-28T05:12:53;79072.78;;;-144.37;100.00
36258;BME280;22294;52.044;4.582;2023-02-28T05:15:18;79070.72;;;-144.37;100.00
36258;BME280;22294;52.044;4.582;2023-02-28T05:17:43;79083.00;;;-144.37;100.00
36258;BME280;22294;52.044;4.582;2023-02-28T05:20:10;79083.00;;;-144.37;100.00
36258;BME280;22294;52.044;4.582;2023-02-28T05:22:43;79068.69;;;-144.37;100.00
36258;BME280;22294;52.044;4.582;2023-02-28T05:25:14;79062.53;;;-144.37;100.00
36258;BME280;22294;52.044;4.582;2023-02-28T05:27:40;79062.53;;;-144.37;100.00
36258;BME280;22294;52.044;4.582;2023-02-28T05:30:08;79052.31;;;-144.37;100.00
36258;BME280;22294;52.044;4.582;2023-02-28T05:32:39;79044.13;;;-144.37;100.00
36258;BME280;22294;52.044;4.582;2023-02-28T05:35:09;79037.97;;;-144.37;100.00
36258;BME280;22294;52.044;4.582;2023-02-28T05:37:34;79037.97;;;-144.37;100.00
36258;BME280;22294;52.044;4.582;2023-02-28T05:40:00;79033.91;;;-144.37;100.00
36258;BME280;22294;52.044;4.582;2023-02-28T05:42:25;79031.84;;;-144.37;100.00
36258;BME280;22294;52.044;4.582;2023-02-28T05:44:50;79027.75;;;-144.37;100.00
36258;BME280;22294;52.044;4.582;2023-02-28T05:47:17;79021.63;;;-144.37;100.00
36258;BME280;22294;52.044;4.582;2023-02-28T05:49:42;79017.53;;;-144.37;100.00
36258;BME280;22294;52.044;4.582;2023-02-28T05:52:07;79019.56;;;-144.37;100.00
36258;BME280;22294;52.044;4.582;2023-02-28T05:54:33;79021.63;;;-144.37;99.15
36258;BME280;22294;52.044;4.582;2023-02-28T05:56:58;79015.47;;;-144.37;99.39
36258;BME280;22294;52.044;4.582;2023-02-28T05:59:23;79015.47;;;-144.37;99.70
36258;BME280;22294;52.044;4.582;2023-02-28T06:01:49;79017.53;;;-144.37;99.84
36258;BME280;22294;52.044;4.582;2023-02-28T06:04:17;79019.56;;;-144.37;99.75
36258;BME280;22294;52.044;4.582;2023-02-28T06:06:47;79017.53;;;-144.37;99.56
36258;BME280;22294;52.044;4.582;2023-02-28T06:09:13;79019.56;;;-144.37;100.00
36258;BME280;22294;52.044;4.582;2023-02-28T06:11:39;79033.91;;;-144.37;99.98
36258;BME280;22294;52.044;4.582;2023-02-28T06:14:09;79025.72;;;-144.37;100.00
36258;BME280;22294;52.044;4.582;2023-02-28T06:16:37;79040.03;;;-144.37;100.00
36258;BME280;22294;52.044;4.582;2023-02-28T06:19:03;79064.59;;;-144.37;100.00
36258;BME280;22294;52.044;4.582;2023-02-28T06:21:29;79062.53;;;-144.37;100.00
36258;BME280;22294;52.044;4.582;2023-02-28T06:23:56;79062.53;;;-144.37;100.00
36258;BME280;22294;52.044;4.582;2023-02-28T06:26:21;79078.91;;;-144.37;100.00
36258;BME280;22294;52.044;4.582;2023-02-28T06:28:47;79105.53;;;-144.37;100.00
36258;BME280;22294;52.044;4.582;2023-02-28T06:31:15;79101.44;;;-144.37;100.00
36258;BME280;22294;52.044;4.582;2023-02-28T06:33:41;79105.53;;;-144.37;100.00
36258;BME280;22294;52.044;4.582;2023-02-28T06:36:08;79103.47;;;-144.37;100.00
36258;BME280;22294;52.044;4.582;2023-02-28T06:38:34;79111.66;;;-144.37;98.24
36258;BME280;22294;52.044;4.582;2023-02-28T06:41:00;79130.09;;;-144.37;97.66
36258;BME280;22294;52.044;4.582;2023-02-28T06:43:29;79119.84;;;-144.37;98.44
36258;BME280;22294;52.044;4.582;2023-02-28T06:45:56;79117.81;;;-144.37;99.02
36258;BME280;22294;52.044;4.582;2023-02-28T06:48:22;79115.75;;;-144.37;97.61
36258;BME280;22294;52.044;4.582;2023-02-28T06:50:47;79123.94;;;-144.37;96.60
36258;BME280;22294;52.044;4.582;2023-02-28T06:53:13;79148.50;;;-144.37;96.26
36258;BME280;22294;52.044;4.582;2023-02-28T06:55:39;79164.88;;;-144.37;97.05
36258;BME280;22294;52.044;4.582;2023-02-28T06:58:04;79152.59;;;-144.37;98.78
36258;BME280;22294;52.044;4.582;2023-02-28T07:00:42;79160.78;;;-144.37;99.28
36258;BME280;22294;52.044;4.582;2023-02-28T07:03:07;79185.34;;;-144.37;100.00
36258;BME280;22294;52.044;4.582;2023-02-28T07:05:35;79201.72;;;-144.37;100.00
36258;BME280;22294;52.044;4.582;2023-02-28T07:08:00;79224.22;;;-144.37;100.00
36258;BME280;22294;52.044;4.582;2023-02-28T07:10:26;79240.59;;;-144.37;100.00
36258;BME280;22294;52.044;4.582;2023-02-28T07:12:51;79238.56;;;-144.37;100.00
36258;BME280;22294;52.044;4.582;2023-02-28T07:15:16;79240.59;;;-144.37;100.00
36258;BME280;22294;52.044;4.582;2023-02-28T07:17:42;79250.84;;;-144.37;100.00
36258;BME280;22294;52.044;4.582;2023-02-28T07:20:07;79261.06;;;-144.37;100.00
36258;BME280;22294;52.044;4.582;2023-02-28T07:22:34;79273.34;;;-144.37;100.00
36258;BME280;22294;52.044;4.582;2023-02-28T07:24:59;79275.41;;;-144.37;100.00
36258;BME280;22294;52.044;4.582;2023-02-28T07:27:24;79269.25;;;-144.37;100.00
36258;BME280;22294;52.044;4.582;2023-02-28T07:29:51;79283.59;;;-144.37;100.00
36258;BME280;22294;52.044;4.582;2023-02-28T07:32:16;79279.50;;;-144.37;100.00
36258;BME280;22294;52.044;4.582;2023-02-28T07:34:41;79271.31;;;-144.37;100.00
36258;BME280;22294;52.044;4.582;2023-02-28T07:37:07;79269.25;;;-144.37;100.00
36258;BME280;22294;52.044;4.582;2023-02-28T07:39:32;79275.41;;;-144.37;100.00
36258;BME280;22294;52.044;4.582;2023-02-28T07:41:57;79277.44;;;-144.37;100.00
36258;BME280;22294;52.044;4.582;2023-02-28T07:44:25;79277.44;;;-144.37;100.00
36258;BME280;22294;52.044;4.582;2023-02-28T07:46:50;79293.81;;;-144.37;100.00
36258;BME280;22294;52.044;4.582;2023-02-28T07:49:15;79293.81;;;-144.37;100.00
36258;BME280;22294;52.044;4.582;2023-02-28T07:51:41;79304.06;;;-144.37;100.00
36258;BME280;22294;52.044;4.582;2023-02-28T07:54:06;79297.91;;;-144.37;100.00
36258;BME280;22294;52.044;4.582;2023-02-28T07:56:33;79302.00;;;-144.37;100.00
36258;BME280;22294;52.044;4.582;2023-02-28T07:58:59;79310.19;;;-144.37;100.00
36258;BME280;22294;52.044;4.582;2023-02-28T08:01:27;79312.25;;;-144.37;100.00
36258;BME280;22294;52.044;4.582;2023-02-28T08:03:53;79306.09;;;-144.37;100.00
36258;BME280;22294;52.044;4.582;2023-02-28T08:06:21;79306.09;;;-144.37;100.00
36258;BME280;22294;52.044;4.582;2023-02-28T08:08:47;79306.09;;;-144.37;100.00
36258;BME280;22294;52.044;4.582;2023-02-28T08:11:14;79310.19;;;-144.37;100.00
36258;BME280;22294;52.044;4.582;2023-02-28T08:13:40;79324.53;;;-144.37;100.00
36258;BME280;22294;52.044;4.582;2023-02-28T08:16:07;79316.34;;;-144.37;100.00
36258;BME280;22294;52.044;4.582;2023-02-28T08:18:33;79316.34;;;-144.37;100.00
36258;BME280;22294;52.044;4.582;2023-02-28T08:20:58;79310.19;;;-144.37;100.00
36258;BME280;22294;52.044;4.582;2023-02-28T08:23:24;79306.09;;;-144.37;100.00
36258;BME280;22294;52.044;4.582;2023-02-28T08:25:54;79310.19;;;-144.37;100.00
36258;BME280;22294;52.044;4.582;2023-02-28T08:28:20;79306.09;;;-144.37;100.00
36258;BME280;22294;52.044;4.582;2023-02-28T08:30:45;79295.88;;;-144.37;100.00
36258;BME280;22294;52.044;4.582;2023-02-28T08:33:11;79283.59;;;-144.37;100.00
36258;BME280;22294;52.044;4.582;2023-02-28T08:35:36;79271.31;;;-144.37;100.00
36258;BME280;22294;52.044;4.582;2023-02-28T08:38:02;79269.25;;;-144.37;100.00
36258;BME280;22294;52.044;4.582;2023-02-28T08:40:27;79259.03;;;-144.37;100.00
36258;BME280;22294;52.044;4.582;2023-02-28T08:42:53;79261.06;;;-144.37;100.00
36258;BME280;22294;52.044;4.582;2023-02-28T08:45:18;79242.66;;;-144.37;100.00
36258;BME280;22294;52.044;4.582;2023-02-28T08:47:43;79254.94;;;-144.37;100.00
36258;BME280;22294;52.044;4.582;2023-02-28T08:50:09;79246.75;;;-144.37;100.00
36258;BME280;22294;52.044;4.582;2023-02-28T08:52:34;79254.94;;;-144.37;100.00
36258;BME280;22294;52.044;4.582;2023-02-28T08:54:59;79240.59;;;-144.37;100.00
36258;BME280;22294;52.044;4.582;2023-02-28T08:57:25;79228.31;;;-144.37;100.00
36258;BME280;22294;52.044;4.582;2023-02-28T08:59:53;79228.31;;;-144.37;100.00
36258;BME280;22294;52.044;4.582;2023-02-28T09:02:18;79236.50;;;-144.37;100.00
36258;BME280;22294;52.044;4.582;2023-02-28T09:04:44;79226.28;;;-144.37;100.00
36258;BME280;22294;52.044;4.582;2023-02-28T09:07:12;79232.41;;;-144.37;100.00
36258;BME280;22294;52.044;4.582;2023-02-28T09:09:38;79224.22;;;-144.37;100.00
36258;BME280;22294;52.044;4.582;2023-02-28T09:12:18;79236.50;;;-144.37;100.00
36258;BME280;22294;52.044;4.582;2023-02-28T09:14:43;79234.47;;;-144.37;100.00
36258;BME280;22294;52.044;4.582;2023-02-28T09:17:09;79256.97;;;-144.37;100.00
36258;BME280;22294;52.044;4.582;2023-02-28T09:19:34;79254.94;;;-144.37;100.00
36258;BME280;22294;52.044;4.582;2023-02-28T09:21:59;79246.75;;;-144.37;100.00
36258;BME280;22294;52.044;4.582;2023-02-28T09:24:24;79256.97;;;-144.37;100.00
36258;BME280;22294;52.044;4.582;2023-02-28T09:26:50;79263.13;;;-144.37;100.00
36258;BME280;22294;52.044;4.582;2023-02-28T09:29:15;79267.22;;;-144.37;100.00
36258;BME280;22294;52.044;4.582;2023-02-28T09:31:42;79261.06;;;-144.37;100.00
36258;BME280;22294;52.044;4.582;2023-02-28T09:34:07;79265.16;;;-144.37;100.00
36258;BME280;22294;52.044;4.582;2023-02-28T09:36:33;79271.31;;;-144.37;100.00
36258;BME280;22294;52.044;4.582;2023-02-28T09:38:59;79259.03;;;-144.37;100.00
36258;BME280;22294;52.044;4.582;2023-02-28T09:41:26;79254.94;;;-144.37;100.00
36258;BME280;22294;52.044;4.582;2023-02-28T09:43:57;79267.22;;;-144.37;100.00
36258;BME280;22294;52.044;4.582;2023-02-28T09:46:34;79254.94;;;-144.37;100.00
36258;BME280;22294;52.044;4.582;2023-02-28T09:49:12;79244.69;;;-144.37;100.00
36258;BME280;22294;52.044;4.582;2023-02-28T09:54:20;79256.97;;;-144.37;100.00
36258;BME280;22294;52.044;4.582;2023-02-28T09:56:53;79263.13;;;-144.37;100.00
36258;BME280;22294;52.044;4.582;2023-02-28T10:04:59;79242.66;;;-144.37;100.00
36258;BME280;22294;52.044;4.582;2023-02-28T10:07:51;79224.22;;;-144.37;100.00
36258;BME280;22294;52.044;4.582;2023-02-28T10:12:46;79197.63;;;-144.37;100.00
36258;BME280;22294;52.044;4.582;2023-02-28T10:15:16;79173.06;;;-144.37;100.00
36258;BME280;22294;52.044;4.582;2023-02-28T10:17:44;79150.56;;;-144.37;100.00
36258;BME280;22294;52.044;4.582;2023-02-28T10:20:14;79123.94;;;-144.37;100.00
36258;BME280;22294;52.044;4.582;2023-02-28T10:22:53;79123.94;;;-144.37;100.00
36258;BME280;22294;52.044;4.582;2023-02-28T10:25:24;79101.44;;;-144.37;100.00
36258;BME280;22294;52.044;4.582;2023-02-28T10:28:05;79091.19;;;-144.37;100.00
36258;BME280;22294;52.044;4.582;2023-02-28T10:30:33;79085.06;;;-144.37;100.00
36258;BME280;22294;52.044;4.582;2023-02-28T10:32:59;79103.47;;;-144.37;95.00
36258;BME280;22294;52.044;4.582;2023-02-28T10:35:26;79097.34;;;-144.37;93.11
36258;BME280;22294;52.044;4.582;2023-02-28T10:37:59;79101.44;;;-144.37;91.58
36258;BME280;22294;52.044;4.582;2023-02-28T10:40:32;79105.53;;;-144.37;90.35
36258;BME280;22294;52.044;4.582;2023-02-28T10:43:01;79083.00;;;-144.37;90.13
36258;BME280;22294;52.044;4.582;2023-02-28T10:45:32;79089.16;;;-144.37;86.69
36258;BME280;22294;52.044;4.582;2023-02-28T10:48:03;79066.63;;;-144.37;88.08
36258;BME280;22294;52.044;4.582;2023-02-28T10:50:42;79044.13;;;-144.37;87.96
36258;BME280;22294;52.044;4.582;2023-02-28T10:55:45;78995.00;;;-144.37;84.56
36258;BME280;22294;52.044;4.582;2023-02-28T10:58:21;78956.13;;;-144.37;83.47
36258;BME280;22294;52.044;4.582;2023-02-28T11:00:48;78921.31;;;-144.37;82.66
36258;BME280;22294;52.044;4.582;2023-02-28T11:05:56;78909.06;;;-144.37;79.24
36258;BME280;22294;52.044;4.582;2023-02-28T11:08:22;78898.81;;;-144.37;75.78
36258;BME280;22294;52.044;4.582;2023-02-28T11:10:59;78919.28;;;-144.37;73.35
36258;BME280;22294;52.044;4.582;2023-02-28T11:13:32;78921.31;;;-144.37;72.81
36258;BME280;22294;52.044;4.582;2023-02-28T11:16:02;78890.63;;;-144.37;77.17
36258;BME280;22294;52.044;4.582;2023-02-28T11:18:54;78933.59;;;-144.37;73.89
36258;BME280;22294;52.044;4.582;2023-02-28T11:21:26;78921.31;;;-144.37;73.55
36258;BME280;22294;52.044;4.582;2023-02-28T11:24:22;78904.97;;;-144.37;75.77
36258;BME280;22294;52.044;4.582;2023-02-28T11:26:45;78894.72;;;-144.37;75.10
36258;BME280;22294;52.044;4.582;2023-02-28T11:29:27;78886.53;;;-144.37;71.28
36258;BME280;22294;52.044;4.582;2023-02-28T11:34:30;78876.31;;;-144.37;67.69
36258;BME280;22294;52.044;4.582;2023-02-28T11:36:58;78872.22;;;-144.37;68.37
36258;BME280;22294;52.044;4.582;2023-02-28T11:39:25;78845.59;;;-144.37;68.02
36258;BME280;22294;52.044;4.582;2023-02-28T11:42:20;78845.59;;;-144.37;68.74
36258;BME280;22294;52.044;4.582;2023-02-28T11:45:09;78902.91;;;-144.37;62.26
36258;BME280;22294;52.044;4.582;2023-02-28T11:48:14;78859.94;;;-144.37;61.66
36258;BME280;22294;52.044;4.582;2023-02-28T11:51:16;78853.78;;;-144.37;62.58
36258;BME280;22294;52.044;4.582;2023-02-28T11:53:55;78839.47;;;-144.37;61.75
36258;BME280;22294;52.044;4.582;2023-02-28T12:07:15;78812.88;;;-144.37;57.80
36258;BME280;22294;52.044;4.582;2023-02-28T12:27:07;78720.78;;;-144.37;55.52
36258;BME280;22294;52.044;4.582;2023-02-28T12:29:46;78757.59;;;-144.37;52.60
36258;BME280;22294;52.044;4.582;2023-02-28T12:32:16;78728.97;;;-144.37;54.95
36258;BME280;22294;52.044;4.582;2023-02-28T12:34:47;78720.78;;;-144.37;53.24
36258;BME280;22294;52.044;4.582;2023-02-28T12:37:19;78739.19;;;-144.37;51.54
36258;BME280;22294;52.044;4.582;2023-02-28T12:39:51;78747.38;;;-144.37;51.22
36258;BME280;22294;52.044;4.582;2023-02-28T12:42:27;78743.28;;;-144.37;51.00
36258;BME280;22294;52.044;4.582;2023-02-28T12:45:02;78743.28;;;-144.37;50.52
36258;BME280;22294;52.044;4.582;2023-02-28T12:47:32;78733.06;;;-144.37;50.98
36258;BME280;22294;52.044;4.582;2023-02-28T12:50:09;78706.44;;;-144.37;50.80
36258;BME280;22294;52.044;4.582;2023-02-28T12:52:51;78712.59;;;-144.37;49.51
36258;BME280;22294;52.044;4.582;2023-02-28T12:55:30;78694.16;;;-144.37;49.46
36258;BME280;22294;52.044;4.582;2023-02-28T13:07:04;78679.84;;;-144.37;50.01
36258;BME280;22294;52.044;4.582;2023-02-28T13:09:31;78692.13;;;-144.37;46.96
36258;BME280;22294;52.044;4.582;2023-02-28T13:11:57;78679.84;;;-144.37;47.62
36258;BME280;22294;52.044;4.582;2023-02-28T13:19:27;78640.97;;;-144.37;48.53
36258;BME280;22294;52.044;4.582;2023-02-28T13:21:53;78630.72;;;-144.37;49.43
36258;BME280;22294;52.044;4.582;2023-02-28T13:29:40;78618.44;;;-144.37;47.80
36258;BME280;22294;52.044;4.582;2023-02-28T13:34:38;78587.75;;;-144.37;48.26
36258;BME280;22294;52.044;4.582;2023-02-28T13:39:46;78612.31;;;-144.37;45.89
36258;BME280;22294;52.044;4.582;2023-02-28T13:53:24;78597.97;;;-144.37;46.71
36258;BME280;22294;52.044;4.582;2023-02-28T13:58:46;78624.59;;;-144.37;45.07
36258;BME280;22294;52.044;4.582;2023-02-28T14:01:45;78610.25;;;-144.37;45.31
36258;BME280;22294;52.044;4.582;2023-02-28T14:06:52;78604.13;;;-144.37;48.78
36258;BME280;22294;52.044;4.582;2023-02-28T14:09:32;78581.63;;;-144.37;49.85
36258;BME280;22294;52.044;4.582;2023-02-28T14:15:23;78548.88;;;-144.37;49.09
36258;BME280;22294;52.044;4.582;2023-02-28T14:17:57;78555.00;;;-144.37;48.25
36258;BME280;22294;52.044;4.582;2023-02-28T14:20:27;78579.56;;;-144.37;46.83
36258;BME280;22294;52.044;4.582;2023-02-28T14:22:58;78583.66;;;-144.37;47.73
36258;BME280;22294;52.044;4.582;2023-02-28T14:30:55;78569.34;;;-144.37;46.40
36258;BME280;22294;52.044;4.582;2023-02-28T14:36:20;78565.25;;;-144.37;44.28
36258;BME280;22294;52.044;4.582;2023-02-28T14:38:53;78563.19;;;-144.37;44.52
36258;BME280;22294;52.044;4.582;2023-02-28T14:43:56;78550.91;;;-144.37;45.18
36258;BME280;22294;52.044;4.582;2023-02-28T14:46:24;78542.72;;;-144.37;44.52
36258;BME280;22294;52.044;4.582;2023-02-28T14:48:51;78552.97;;;-144.37;44.00
36258;BME280;22294;52.044;4.582;2023-02-28T14:51:22;78550.91;;;-144.37;44.76